Ellisboro, North Carolina
Current Conditions -  °F | °C
As of 6:55 PM on Saturday 25 Oct 2014 (Local Time) from KSIF Reporting Station
Clear Clear  
Wind Chill: 56°   Ceiling: Unl
Heat Index: 56°   Visibility: 10mi
Dew Point: 49°   Wind: 0mph
Humidity: 76%   Direction: NA
Pressure: 29.89"   Gusts: NA
Location:  36.3697°N, 79.9626°W
Report Text: KSIF 252255Z AUTO 00000KT 10SM CLR 13/09 A2989 RMK AO2 T01340093
Loading
Personal Weather Stations






























Interactive Weather Map
Tropical Storm Tracking
New forecast layout! Learn more

10-Day Weather Forecast

Advertisements
Track Severe Weather on mobile